createdAt,value
2023-07-30T00:02:19.964Z,99900.26000000001
2023-07-30T00:06:19.986Z,99899.44
2023-07-30T00:10:19.769Z,99903.16
2023-07-30T00:14:19.923Z,99899.59999999999
2023-07-30T00:18:19.919Z,99902.22
2023-07-30T00:22:22.354Z,99895.47
2023-07-30T00:26:20.186Z,99884.89
2023-07-30T00:34:20.090Z,99889.58
2023-07-30T00:38:20.460Z,99891.14
2023-07-30T00:46:20.438Z,99894.54
2023-07-30T00:50:19.957Z,99899.63
2023-07-30T00:54:20.264Z,99904.97
2023-07-30T00:58:21.061Z,99905.52
2023-07-30T01:02:21.012Z,99898.01999999999
2023-07-30T01:06:20.840Z,99895.95000000001
2023-07-30T01:10:21.581Z,99903.34
2023-07-30T01:14:20.476Z,99899.5
2023-07-30T01:18:20.126Z,99897.79
2023-07-30T01:22:20.096Z,99899.67
2023-07-30T01:26:26.991Z,99896.45000000001
2023-07-30T01:30:24.619Z,99902.98
2023-07-30T01:34:20.994Z,99894.67
2023-07-30T01:38:20.892Z,99901.23
2023-07-30T01:42:20.115Z,99893.8
2023-07-30T01:46:20.146Z,99890.89
2023-07-30T01:50:20.155Z,99893.19
2023-07-30T01:54:20.151Z,99888.79
2023-07-30T01:58:20.243Z,99889.86
2023-07-30T02:02:20.148Z,99894.06999999999
2023-07-30T02:06:20.321Z,99896.28
2023-07-30T02:10:20.239Z,99903.16
2023-07-30T02:14:20.324Z,99903.22
2023-07-30T02:18:20.261Z,99905.40999999999
2023-07-30T02:22:20.295Z,99903.34
2023-07-30T02:27:19.705Z,99902.13
2023-07-30T02:31:32.891Z,99903.11
2023-07-30T02:34:20.406Z,99898.8
2023-07-30T02:38:29.465Z,99894.8
2023-07-30T02:42:44.226Z,99889.45
2023-07-30T02:46:37.621Z,99890.91
2023-07-30T02:49:04.947Z,99890.91
2023-07-30T02:50:21.457Z,99886.53
2023-07-30T02:54:22.128Z,99894.78
2023-07-30T02:58:20.282Z,99893.39
2023-07-30T03:02:20.418Z,99882.62
2023-07-30T03:06:20.361Z,99887.7
2023-07-30T03:14:21.001Z,99893.66
2023-07-30T03:22:20.796Z,99900.73
2023-07-30T03:26:20.353Z,99893.84
2023-07-30T03:30:21.161Z,99900.43
2023-07-30T03:34:20.741Z,99910.54000000001
2023-07-30T03:38:20.516Z,99924.19
2023-07-30T03:42:20.453Z,99921.48
2023-07-30T03:46:20.997Z,99925.44
2023-07-30T03:52:23.632Z,99927.39
2023-07-30T03:54:20.545Z,99941.2
2023-07-30T03:58:20.529Z,99944.56
2023-07-30T04:02:20.656Z,99945.68000000001
2023-07-30T04:06:20.572Z,99941.94
2023-07-30T04:10:20.489Z,99939.70000000001
2023-07-30T04:14:20.717Z,99936.25
2023-07-30T04:18:20.700Z,99933.75
2023-07-30T04:22:21.466Z,99932.12
2023-07-30T04:26:20.521Z,99941.68
2023-07-30T04:30:20.639Z,99939.29000000001
2023-07-30T04:34:20.600Z,99940.0
2023-07-30T04:38:20.716Z,99946.06999999999
2023-07-30T04:42:20.721Z,99951.5
2023-07-30T04:46:20.747Z,99954.98999999999
2023-07-30T04:50:20.623Z,99959.95
2023-07-30T04:54:20.715Z,99960.08
2023-07-30T04:58:20.676Z,99962.33
2023-07-30T05:02:20.955Z,99965.22
2023-07-30T05:06:21.055Z,99962.15
2023-07-30T05:10:20.906Z,99973.38
2023-07-30T05:14:20.879Z,99967.75
2023-07-30T05:18:20.839Z,99967.62999999999
2023-07-30T05:22:20.910Z,99975.75
2023-07-30T05:26:20.844Z,99974.51999999999
2023-07-30T05:30:20.720Z,99975.04000000001
2023-07-30T05:34:21.012Z,99984.89
2023-07-30T05:38:20.886Z,99987.92
2023-07-30T05:42:20.830Z,99988.59
2023-07-30T05:46:20.843Z,99988.97
2023-07-30T05:50:20.873Z,100001.47
2023-07-30T05:54:20.990Z,99992.33
2023-07-30T05:58:21.066Z,99997.5
2023-07-30T06:06:26.934Z,100004.79000000001
2023-07-30T06:10:20.840Z,100006.05
2023-07-30T06:14:21.030Z,100005.08
2023-07-30T06:18:20.858Z,100007.01000000001
2023-07-30T06:22:22.061Z,100007.34
2023-07-30T06:26:21.011Z,100013.29
2023-07-30T06:30:21.240Z,100019.65
2023-07-30T06:34:20.975Z,100017.48999999999
2023-07-30T06:38:21.908Z,100008.29
2023-07-30T06:42:21.037Z,100015.59
2023-07-30T06:46:21.084Z,100011.01
2023-07-30T06:50:20.971Z,100011.64
2023-07-30T06:54:21.326Z,100013.97
2023-07-30T06:58:21.014Z,100012.92
2023-07-30T07:03:03.946Z,100018.40999999999
2023-07-30T07:07:12.839Z,100016.58
2023-07-30T07:10:21.265Z,100019.37000000001
2023-07-30T07:14:21.035Z,100022.61
2023-07-30T07:18:21.427Z,100029.3
2023-07-30T07:22:21.192Z,100034.58
2023-07-30T07:26:21.126Z,100028.04
2023-07-30T07:30:21.128Z,100031.94
2023-07-30T07:34:21.913Z,100019.58
2023-07-30T07:38:21.133Z,100030.42
2023-07-30T07:42:21.299Z,100035.33
2023-07-30T07:46:21.798Z,100030.02
2023-07-30T07:50:21.229Z,100041.49
2023-07-30T07:54:21.930Z,100049.87999999999
2023-07-30T07:58:21.224Z,100038.7
2023-07-30T08:02:21.182Z,100048.71
2023-07-30T08:06:21.429Z,100049.1
2023-07-30T08:10:21.383Z,100055.38
2023-07-30T08:14:22.441Z,100048.96
2023-07-30T08:22:22.296Z,100052.56000000001
2023-07-30T08:26:21.188Z,100046.12
2023-07-30T08:30:21.569Z,100054.96
2023-07-30T08:34:21.776Z,100045.98999999999
2023-07-30T08:38:21.505Z,100058.73
2023-07-30T08:42:21.303Z,100047.0
2023-07-30T08:46:21.573Z,100059.03
2023-07-30T08:50:21.359Z,100066.35
2023-07-30T08:54:22.882Z,100057.08
2023-07-30T08:58:23.010Z,100060.33
2023-07-30T09:02:30.278Z,100057.76
2023-07-30T09:06:21.342Z,100054.49
2023-07-30T09:10:21.885Z,100055.94
2023-07-30T09:14:21.942Z,100055.58
2023-07-30T09:18:21.505Z,100068.39
2023-07-30T09:22:25.598Z,100062.77
2023-07-30T09:26:21.850Z,100066.06
2023-07-30T09:30:22.428Z,100070.20999999999
2023-07-30T09:34:23.044Z,100074.87999999999
2023-07-30T09:38:21.427Z,100076.39
2023-07-30T09:42:26.919Z,100074.08
2023-07-30T09:46:21.469Z,100072.33
2023-07-30T09:50:21.929Z,100073.03
2023-07-30T09:54:22.325Z,100070.11
2023-07-30T09:58:21.702Z,100086.11
2023-07-30T10:02:21.760Z,100081.83
2023-07-30T10:06:23.710Z,100077.04
2023-07-30T10:10:24.354Z,100079.1
2023-07-30T10:14:23.829Z,100087.45
2023-07-30T10:26:27.065Z,100087.42
2023-07-30T10:30:22.147Z,100079.97
2023-07-30T10:37:28.567Z,100088.12000000001
2023-07-30T10:42:22.018Z,100076.83
2023-07-30T10:46:43.105Z,100074.29
2023-07-30T10:51:15.823Z,100082.89
2023-07-30T10:54:22.199Z,100067.89
2023-07-30T10:58:31.472Z,100070.06
2023-07-30T11:02:22.452Z,100087.01999999999
2023-07-30T11:06:23.077Z,100083.29
2023-07-30T11:10:22.037Z,100089.28
2023-07-30T11:14:25.880Z,100083.72
2023-07-30T11:18:22.213Z,100090.12
2023-07-30T11:22:30.720Z,100080.03
2023-07-30T11:26:22.075Z,100081.38
2023-07-30T11:34:22.554Z,100094.51000000001
2023-07-30T11:38:23.628Z,100113.64
2023-07-30T11:42:22.930Z,100097.89
2023-07-30T11:46:22.690Z,100085.6
2023-07-30T11:50:22.458Z,100100.41
2023-07-30T11:54:23.358Z,100086.01999999999
2023-07-30T11:58:22.087Z,100090.47
2023-07-30T12:02:21.853Z,100096.72
2023-07-30T12:06:22.228Z,100099.08
2023-07-30T12:10:21.980Z,100097.19
2023-07-30T12:14:25.721Z,100100.66
2023-07-30T12:18:23.902Z,100094.17
2023-07-30T12:22:22.047Z,100102.39
2023-07-30T12:26:21.890Z,100087.15999999999
2023-07-30T12:30:22.125Z,100094.28
2023-07-30T12:38:22.225Z,100109.03
2023-07-30T12:42:22.026Z,100114.64
2023-07-30T12:46:22.124Z,100121.77
2023-07-30T12:50:22.104Z,100121.8
2023-07-30T12:54:22.150Z,100119.65
2023-07-30T12:58:22.140Z,100120.62
2023-07-30T13:06:22.493Z,100117.04
2023-07-30T13:10:22.062Z,100119.23000000001
2023-07-30T13:14:22.237Z,100113.89
2023-07-30T13:18:22.059Z,100115.53
2023-07-30T13:22:22.250Z,100115.17
2023-07-30T13:26:22.649Z,100117.47
2023-07-30T13:30:22.560Z,100108.26
2023-07-30T13:34:22.453Z,100115.75
2023-07-30T13:38:22.894Z,100103.17
2023-07-30T13:42:22.145Z,100106.61
2023-07-30T13:46:22.262Z,100111.58
2023-07-30T13:50:22.132Z,100104.35
2023-07-30T13:54:22.497Z,100097.85
2023-07-30T13:58:22.160Z,100091.24
2023-07-30T14:02:22.509Z,100094.65
2023-07-30T14:06:23.316Z,100101.83
2023-07-30T14:10:22.539Z,100098.91
2023-07-30T14:14:23.208Z,100093.7
2023-07-30T14:18:22.458Z,100088.33
2023-07-30T14:26:22.394Z,100085.31
2023-07-30T14:30:22.276Z,100086.11
2023-07-30T14:34:22.428Z,100081.67
2023-07-30T14:38:22.291Z,100077.53
2023-07-30T14:42:22.548Z,100074.73
2023-07-30T14:46:22.377Z,100073.33
2023-07-30T14:50:23.343Z,100068.97
2023-07-30T14:54:22.418Z,100073.75
2023-07-30T14:58:39.343Z,100075.89
2023-07-30T15:03:02.490Z,100071.11
2023-07-30T15:07:26.028Z,100060.28
2023-07-30T15:10:22.611Z,100059.27
2023-07-30T15:14:22.549Z,100053.99
2023-07-30T15:18:22.447Z,100053.52
2023-07-30T15:22:22.479Z,100045.97
2023-07-30T15:26:22.585Z,100046.89
2023-07-30T15:34:34.021Z,100046.02
2023-07-30T15:38:22.504Z,100050.33
2023-07-30T15:42:22.633Z,100043.24
2023-07-30T15:46:23.051Z,100045.59000000001
2023-07-30T15:50:26.468Z,100043.37000000001
2023-07-30T15:54:30.979Z,100051.48000000001
2023-07-30T15:58:22.693Z,100046.51
2023-07-30T16:02:22.698Z,100043.34
2023-07-30T16:06:25.318Z,100053.2
2023-07-30T16:10:22.576Z,100049.7
2023-07-30T16:14:22.690Z,100055.90999999999
2023-07-30T16:18:22.560Z,100053.34
2023-07-30T16:22:22.863Z,100058.04000000001
2023-07-30T16:26:23.011Z,100055.76999999999
2023-07-30T16:34:22.828Z,100064.06
2023-07-30T16:38:22.866Z,100067.19
2023-07-30T16:42:22.914Z,100065.8
2023-07-30T16:46:23.053Z,100069.59000000001
2023-07-30T16:50:22.905Z,100069.14
2023-07-30T16:54:22.685Z,100073.89
2023-07-30T16:58:23.357Z,100075.3
2023-07-30T17:02:22.683Z,100076.93000000001
2023-07-30T17:06:23.023Z,100078.11
2023-07-30T17:10:22.740Z,100081.11
2023-07-30T17:18:22.887Z,100077.8
2023-07-30T17:22:22.797Z,100079.83
2023-07-30T17:26:22.967Z,100083.51
2023-07-30T17:30:22.851Z,100085.03
2023-07-30T17:38:22.893Z,100079.3
2023-07-30T17:42:22.890Z,100086.44
2023-07-30T17:46:23.164Z,100089.53
2023-07-30T17:50:22.847Z,100095.98
2023-07-30T17:54:22.984Z,100098.56999999999
2023-07-30T18:02:22.975Z,100092.5
2023-07-30T18:06:23.190Z,100090.44
2023-07-30T18:10:23.240Z,100090.39
2023-07-30T18:14:22.949Z,100084.15
2023-07-30T18:18:23.177Z,100088.61
2023-07-30T18:22:22.952Z,100097.52
2023-07-30T18:26:23.081Z,100093.48
2023-07-30T18:34:23.109Z,100094.02
2023-07-30T18:42:23.143Z,100089.31
2023-07-30T18:46:23.048Z,100086.94
2023-07-30T18:50:23.183Z,100087.86
2023-07-30T18:58:23.241Z,100093.69
2023-07-30T19:02:23.070Z,100093.3
2023-07-30T19:06:24.607Z,100103.67
2023-07-30T19:10:23.080Z,100098.78
2023-07-30T19:18:23.433Z,100107.28
2023-07-30T19:22:23.353Z,100102.12
2023-07-30T19:26:23.468Z,100104.01000000001
2023-07-30T19:30:24.693Z,100100.75
2023-07-30T19:34:23.395Z,100092.26999999999
2023-07-30T19:38:25.696Z,100097.09
2023-07-30T19:42:23.509Z,100094.09000000001
2023-07-30T19:48:04.286Z,100092.9
2023-07-30T19:50:32.554Z,100089.77
2023-07-30T19:54:23.283Z,100095.17
2023-07-30T19:58:26.124Z,100091.90999999999
2023-07-30T20:02:23.521Z,100090.66
2023-07-30T20:06:23.436Z,100090.61
2023-07-30T20:10:25.948Z,100086.36
2023-07-30T20:14:23.278Z,100084.36
2023-07-30T20:22:23.622Z,100093.38
2023-07-30T20:30:23.708Z,100080.24
2023-07-30T20:34:23.329Z,100070.9
2023-07-30T20:38:23.436Z,100069.98
2023-07-30T20:42:23.544Z,100071.28
2023-07-30T20:46:23.615Z,100067.66
2023-07-30T20:54:23.641Z,100067.98999999999
2023-07-30T20:58:23.351Z,100068.37000000001
2023-07-30T21:02:23.824Z,100054.24
2023-07-30T21:06:23.442Z,100052.48
2023-07-30T21:14:23.642Z,100045.0
2023-07-30T21:22:23.581Z,100045.37
2023-07-30T21:30:23.892Z,100041.53
2023-07-30T21:34:23.539Z,100036.31
2023-07-30T21:46:23.830Z,100025.08
2023-07-30T21:50:23.641Z,100021.72
2023-07-30T21:54:23.847Z,100013.78
2023-07-30T22:02:24.047Z,99994.59000000001
2023-07-30T22:06:23.643Z,99995.06
2023-07-30T22:10:23.798Z,99987.8
2023-07-30T22:18:23.759Z,99974.37999999999
2023-07-30T22:22:25.820Z,99971.47
2023-07-30T22:26:23.780Z,99975.2
2023-07-30T22:30:23.692Z,99966.64
2023-07-30T22:34:24.607Z,99964.38
2023-07-30T22:38:23.710Z,99951.73
2023-07-30T22:42:23.952Z,99945.79
2023-07-30T22:46:23.761Z,99947.14
2023-07-30T22:50:23.821Z,99946.73
2023-07-30T22:54:23.682Z,99940.17
2023-07-30T22:58:23.789Z,99936.25
2023-07-30T23:06:23.911Z,99928.56
2023-07-30T23:10:23.904Z,99928.06
2023-07-30T23:14:23.838Z,99918.34
2023-07-30T23:18:23.861Z,99910.27
2023-07-30T23:22:23.858Z,99911.40000000001
2023-07-30T23:26:23.969Z,99917.28
2023-07-30T23:30:23.953Z,99912.27
2023-07-30T23:34:23.824Z,99911.90000000001
2023-07-30T23:38:23.944Z,99909.12
2023-07-30T23:42:24.039Z,99901.09
2023-07-30T23:46:24.039Z,99895.34
2023-07-30T23:50:23.958Z,99891.03
2023-07-30T23:54:24.095Z,99887.73
2023-07-30T23:58:23.967Z,99880.12999999999
